createdAt,value
2023-02-02T00:04:25.264Z,6.10
2023-02-02T00:09:31.625Z,6.10
2023-02-02T00:14:33.225Z,6.10
2023-02-02T00:19:35.243Z,6.20
2023-02-02T00:24:36.676Z,6.18
2023-02-02T00:29:39.811Z,6.15
2023-02-02T00:34:41.467Z,6.17
2023-02-02T00:39:42.865Z,6.11
2023-02-02T00:45:03.004Z,6.10
2023-02-02T00:50:04.934Z,6.09
2023-02-02T00:55:06.964Z,6.09
2023-02-02T01:00:09.563Z,6.07
2023-02-02T01:05:12.530Z,6.04
2023-02-02T01:10:18.015Z,6.06
2023-02-02T01:15:19.735Z,6.03
2023-02-02T01:20:21.379Z,6.03
2023-02-02T01:25:22.997Z,5.98
2023-02-02T01:30:24.557Z,5.98
2023-02-02T01:35:26.424Z,5.93
2023-02-02T01:40:28.088Z,5.89
2023-02-02T01:45:29.787Z,5.87
2023-02-02T01:50:34.415Z,5.83
2023-02-02T01:55:38.536Z,5.74
2023-02-02T02:00:44.652Z,5.69
2023-02-02T02:06:10.404Z,5.63
2023-02-02T02:11:11.806Z,5.58
2023-02-02T02:16:39.609Z,5.56
2023-02-02T02:22:11.916Z,5.56
2023-02-02T02:27:21.917Z,5.53
2023-02-02T02:32:57.678Z,5.52
2023-02-02T02:38:10.909Z,5.52
2023-02-02T02:43:18.457Z,5.50
2023-02-02T02:48:20.434Z,5.49
2023-02-02T02:53:22.433Z,5.47
2023-02-02T02:58:32.813Z,5.48
2023-02-02T03:03:41.969Z,5.46
2023-02-02T03:08:54.238Z,5.49
2023-02-02T03:13:56.224Z,5.49
2023-02-02T03:18:57.827Z,5.51
2023-02-02T03:23:59.918Z,5.57
2023-02-02T03:29:01.921Z,5.57
2023-02-02T03:34:03.342Z,5.65
2023-02-02T03:39:04.857Z,5.69
2023-02-02T03:44:06.256Z,5.69
2023-02-02T03:49:07.660Z,5.81
2023-02-02T03:54:08.999Z,5.87
2023-02-02T03:59:10.395Z,5.96
2023-02-02T04:04:11.801Z,6.12
2023-02-02T04:09:13.288Z,6.11
2023-02-02T04:14:15.031Z,6.09
2023-02-02T04:19:17.063Z,6.15
2023-02-02T04:24:18.522Z,6.19
2023-02-02T04:29:19.926Z,6.20
2023-02-02T04:34:21.406Z,6.23
2023-02-02T04:39:22.861Z,6.25
2023-02-02T04:44:24.361Z,6.27
2023-02-02T04:49:25.837Z,6.23
2023-02-02T04:54:27.380Z,6.28
2023-02-02T04:59:30.022Z,6.28
2023-02-02T05:04:31.536Z,6.41
2023-02-02T05:09:32.998Z,6.46
2023-02-02T05:14:34.371Z,6.42
2023-02-02T05:19:35.776Z,6.43
2023-02-02T05:24:37.349Z,6.43
2023-02-02T05:29:38.934Z,6.46
2023-02-02T05:34:40.532Z,6.41
2023-02-02T05:39:41.928Z,6.55
2023-02-02T05:44:43.366Z,6.53
2023-02-02T05:49:44.884Z,6.54
2023-02-02T05:54:46.385Z,6.57
2023-02-02T05:59:47.805Z,6.49
2023-02-02T06:04:49.307Z,6.58
2023-02-02T06:09:50.683Z,6.57
2023-02-02T06:14:52.056Z,6.52
2023-02-02T06:19:53.500Z,6.51
2023-02-02T06:24:54.940Z,6.54
2023-02-02T06:29:56.351Z,6.54
2023-02-02T06:34:57.913Z,6.49
2023-02-02T06:39:59.513Z,6.45
2023-02-02T06:45:00.947Z,6.48
2023-02-02T06:50:02.727Z,6.42
2023-02-02T06:55:04.534Z,6.35
2023-02-02T07:00:06.643Z,6.29
2023-02-02T07:05:08.410Z,6.28
2023-02-02T07:10:10.147Z,6.31
2023-02-02T07:15:31.785Z,6.29
2023-02-02T07:20:33.961Z,6.26
2023-02-02T07:25:35.377Z,6.27
2023-02-02T07:30:42.926Z,6.28
2023-02-02T07:35:44.743Z,6.30
2023-02-02T07:40:46.714Z,6.28
2023-02-02T07:45:48.089Z,6.30
2023-02-02T07:50:49.506Z,6.28
2023-02-02T07:55:50.974Z,6.28
2023-02-02T08:00:52.693Z,6.30
2023-02-02T08:05:54.257Z,6.36
2023-02-02T08:10:55.723Z,6.37
2023-02-02T08:16:00.311Z,6.39
2023-02-02T08:21:03.071Z,6.41
2023-02-02T08:26:10.555Z,6.41
2023-02-02T08:31:15.999Z,6.47
2023-02-02T08:36:19.621Z,6.53
2023-02-02T08:41:28.425Z,6.58
2023-02-02T08:46:29.843Z,6.64
2023-02-02T08:51:31.306Z,6.63
2023-02-02T08:56:32.730Z,6.66
2023-02-02T09:01:35.244Z,6.69
2023-02-02T09:06:38.855Z,6.77
2023-02-02T09:11:40.891Z,6.89
2023-02-02T09:16:42.497Z,6.92
2023-02-02T09:21:43.978Z,6.93
2023-02-02T09:26:45.447Z,6.98
2023-02-02T09:31:47.104Z,7.06
2023-02-02T09:36:48.573Z,7.15
2023-02-02T09:42:05.446Z,7.18
2023-02-02T09:47:25.654Z,7.19
2023-02-02T09:52:39.546Z,7.18
2023-02-02T09:57:55.447Z,7.23
2023-02-02T10:03:03.092Z,7.24
2023-02-02T10:08:08.035Z,7.24
2023-02-02T10:13:27.095Z,7.26
2023-02-02T10:18:56.072Z,7.28
2023-02-02T10:24:00.702Z,7.27
2023-02-02T10:29:23.580Z,7.28
2023-02-02T10:34:53.719Z,7.24
2023-02-02T10:40:17.277Z,7.29
2023-02-02T10:45:19.663Z,7.34
2023-02-02T10:50:23.229Z,7.36
2023-02-02T10:55:43.429Z,7.35
2023-02-02T11:00:53.456Z,7.34
2023-02-02T11:06:15.510Z,7.32
2023-02-02T11:11:22.080Z,7.25
2023-02-02T11:16:38.887Z,7.24
2023-02-02T11:21:47.655Z,7.23
2023-02-02T11:26:56.945Z,7.21
2023-02-02T11:32:17.547Z,7.22
2023-02-02T11:37:22.385Z,7.26
2023-02-02T11:42:25.400Z,7.25
2023-02-02T11:47:30.403Z,7.31
2023-02-02T11:52:33.141Z,7.33
2023-02-02T11:57:34.821Z,7.36
2023-02-02T12:02:36.526Z,7.43
2023-02-02T12:07:38.321Z,7.40
2023-02-02T12:12:49.427Z,7.44
2023-02-02T12:17:58.531Z,7.47
2023-02-02T12:23:24.071Z,7.47
2023-02-02T12:28:44.490Z,7.43
2023-02-02T12:33:52.791Z,7.41
2023-02-02T12:39:08.637Z,7.39
2023-02-02T12:44:26.212Z,7.35
2023-02-02T12:50:05.442Z,7.32
2023-02-02T12:55:37.478Z,7.29
2023-02-02T13:00:55.792Z,7.22
2023-02-02T13:06:26.361Z,7.16
2023-02-02T13:11:41.386Z,7.12
2023-02-02T13:16:56.476Z,6.96
2023-02-02T13:22:00.910Z,6.91
2023-02-02T13:27:06.359Z,6.84
2023-02-02T13:32:19.645Z,6.79
2023-02-02T13:37:45.302Z,6.74
2023-02-02T13:42:54.463Z,6.74
2023-02-02T13:48:08.442Z,6.75
2023-02-02T13:53:28.915Z,6.74
2023-02-02T13:58:39.601Z,6.72
2023-02-02T14:03:44.232Z,6.72
2023-02-02T14:09:01.775Z,6.72
2023-02-02T14:14:28.339Z,6.71
2023-02-02T14:19:35.658Z,6.74
2023-02-02T14:24:38.164Z,6.74
2023-02-02T14:29:46.978Z,6.75
2023-02-02T14:34:50.443Z,6.78
2023-02-02T14:40:07.215Z,6.76
2023-02-02T14:45:11.674Z,6.74
2023-02-02T14:50:20.729Z,6.75
2023-02-02T14:55:22.805Z,6.77
2023-02-02T15:00:29.260Z,6.77
2023-02-02T15:05:38.781Z,6.76
2023-02-02T15:10:53.701Z,6.77
2023-02-02T15:16:09.696Z,6.76
2023-02-02T15:21:16.990Z,6.76
2023-02-02T15:26:24.861Z,6.75
2023-02-02T15:31:46.703Z,6.74
2023-02-02T15:36:51.693Z,6.74
2023-02-02T15:42:17.023Z,6.72
2023-02-02T15:47:28.660Z,6.74
2023-02-02T15:52:35.392Z,6.74
2023-02-02T15:57:37.170Z,6.75
2023-02-02T16:02:45.681Z,6.74
2023-02-02T16:07:59.687Z,6.73
2023-02-02T16:13:06.239Z,6.73
2023-02-02T16:18:15.647Z,6.73
2023-02-02T16:23:24.576Z,6.72
2023-02-02T16:28:26.816Z,6.72
2023-02-02T16:33:35.802Z,6.74
2023-02-02T16:38:40.377Z,6.73
2023-02-02T16:43:43.063Z,6.74
2023-02-02T16:48:55.637Z,6.74
2023-02-02T16:54:00.965Z,6.74
2023-02-02T16:59:25.917Z,6.74
2023-02-02T17:04:31.096Z,6.75
2023-02-02T17:09:37.912Z,6.74
2023-02-02T17:14:59.306Z,6.73
2023-02-02T17:20:00.732Z,6.76
2023-02-02T17:25:02.832Z,6.72
2023-02-02T17:30:05.190Z,6.70
2023-02-02T17:35:22.708Z,6.72
2023-02-02T17:40:24.666Z,6.71
2023-02-02T17:45:34.107Z,6.71
2023-02-02T17:50:37.360Z,6.70
2023-02-02T17:55:42.657Z,6.71
2023-02-02T18:00:55.016Z,6.71
2023-02-02T18:05:57.723Z,6.71
2023-02-02T18:10:59.919Z,6.73
2023-02-02T18:16:01.421Z,6.73
2023-02-02T18:21:07.394Z,6.73
2023-02-02T18:26:23.219Z,6.74
2023-02-02T18:31:24.750Z,6.78
2023-02-02T18:36:26.268Z,6.76
2023-02-02T18:41:27.833Z,6.76
2023-02-02T18:46:33.895Z,6.77
2023-02-02T18:51:35.635Z,6.79
2023-02-02T18:56:37.115Z,6.74
2023-02-02T19:01:38.773Z,6.77
2023-02-02T19:07:04.169Z,6.76
2023-02-02T19:12:13.077Z,6.74
2023-02-02T19:17:14.501Z,6.71
2023-02-02T19:22:21.711Z,6.69
2023-02-02T19:27:26.361Z,6.71
2023-02-02T19:32:32.415Z,6.68
2023-02-02T19:37:39.154Z,6.69
2023-02-02T19:42:45.197Z,6.62
2023-02-02T19:47:46.627Z,6.59
2023-02-02T19:52:49.797Z,6.57
2023-02-02T19:58:14.873Z,6.62
2023-02-02T20:03:18.482Z,6.68
2023-02-02T20:08:38.887Z,6.71
2023-02-02T20:13:48.568Z,6.69
2023-02-02T20:18:55.785Z,6.71
2023-02-02T20:23:57.475Z,6.83
2023-02-02T20:29:01.262Z,6.81
2023-02-02T20:34:17.828Z,6.84
2023-02-02T20:39:28.358Z,6.89
2023-02-02T20:44:32.545Z,6.94
2023-02-02T20:49:36.790Z,6.97
2023-02-02T20:54:42.017Z,6.96
2023-02-02T20:59:44.909Z,6.98
2023-02-02T21:04:47.669Z,6.98
2023-02-02T21:09:51.090Z,7.05
2023-02-02T21:14:54.171Z,7.06
2023-02-02T21:19:57.908Z,7.01
2023-02-02T21:24:59.430Z,7.05
2023-02-02T21:30:00.937Z,7.08
2023-02-02T21:35:03.180Z,7.09
2023-02-02T21:40:15.234Z,7.16
2023-02-02T21:45:22.896Z,7.14
2023-02-02T21:50:37.636Z,7.12
2023-02-02T21:55:40.753Z,7.15
2023-02-02T22:00:42.278Z,7.18
2023-02-02T22:05:43.955Z,7.15
2023-02-02T22:10:45.645Z,7.16
2023-02-02T22:15:49.071Z,7.16
2023-02-02T22:20:52.436Z,7.22
2023-02-02T22:25:58.509Z,7.25
2023-02-02T22:31:01.028Z,7.19
2023-02-02T22:36:03.032Z,7.23
2023-02-02T22:41:06.869Z,7.27
2023-02-02T22:46:09.582Z,7.27
2023-02-02T22:51:11.083Z,7.27
2023-02-02T22:56:19.670Z,7.30
2023-02-02T23:01:21.188Z,7.32
2023-02-02T23:06:22.964Z,7.33
2023-02-02T23:11:25.615Z,7.38
2023-02-02T23:16:27.274Z,7.37
2023-02-02T23:21:29.125Z,7.44
2023-02-02T23:26:30.521Z,7.39
2023-02-02T23:31:32.142Z,7.40
2023-02-02T23:36:33.909Z,7.49
2023-02-02T23:41:35.291Z,7.42
2023-02-02T23:46:37.732Z,7.41
2023-02-02T23:51:39.140Z,7.48
2023-02-02T23:56:42.276Z,7.48
